TUS weather

Tucson International Airport
Tucson, Arizona, United States

Public forecast

Using degrees Fahrenheit for public forecast. Weather courtesy of forecast.io.

Current aviation weather report (METAR) for Tucson International Airport

Retrieved 2019/10/23 03:53 UTC (22 minutes ago):

KTUS 230353Z 27008KT 10SM CLR 21/M06 A3004 RMK AO2 SLP140 T02111061

Aviation forecast (TAF) for Tucson International Airport

Retrieved 2019-10-23 00:24 UTC (4 hours ago):

TAF KTUS 222322Z 2300/2324 33006KT P6SM SKC FM230300 25004KT P6SM SKC FM230700 14007KT P6SM SKC FM231600 VRB03KT P6SM SKC FM232200 32006KT P6SM FEW250